sensor_id;sensor_type;location;lat;lon;timestamp;pressure;altitude;pressure_sealevel;temperature;humidity
48244;BME280;34053;51.088;6.572;2023-04-28T00:00:25;100729.97;;;12.71;47.33
48244;BME280;34053;51.088;6.572;2023-04-28T00:02:56;100714.91;;;12.76;46.87
48244;BME280;34053;51.088;6.572;2023-04-28T00:05:26;100717.69;;;12.71;47.32
48244;BME280;34053;51.088;6.572;2023-04-28T00:07:57;100715.81;;;12.75;47.28
48244;BME280;34053;51.088;6.572;2023-04-28T00:10:28;100712.09;;;12.81;47.33
48244;BME280;34053;51.088;6.572;2023-04-28T00:12:58;100699.69;;;12.84;47.72
48244;BME280;34053;51.088;6.572;2023-04-28T00:15:29;100693.84;;;12.76;48.64
48244;BME280;34053;51.088;6.572;2023-04-28T00:17:59;100687.69;;;12.52;51.43
48244;BME280;34053;51.088;6.572;2023-04-28T00:20:29;100682.41;;;12.52;51.64
48244;BME280;34053;51.088;6.572;2023-04-28T00:23:00;100683.81;;;12.62;49.71
48244;BME280;34053;51.088;6.572;2023-04-28T00:25:30;100681.84;;;12.67;49.24
48244;BME280;34053;51.088;6.572;2023-04-28T00:28:01;100669.09;;;12.80;48.86
48244;BME280;34053;51.088;6.572;2023-04-28T00:30:32;100675.00;;;12.87;48.88
48244;BME280;34053;51.088;6.572;2023-04-28T00:33:02;100676.88;;;12.59;52.49
48244;BME280;34053;51.088;6.572;2023-04-28T00:35:32;100674.75;;;12.69;50.93
48244;BME280;34053;51.088;6.572;2023-04-28T00:38:03;100671.91;;;12.75;50.79
48244;BME280;34053;51.088;6.572;2023-04-28T00:40:34;100674.31;;;12.33;54.37
48244;BME280;34053;51.088;6.572;2023-04-28T00:43:05;100664.00;;;12.26;55.37
48244;BME280;34053;51.088;6.572;2023-04-28T00:45:36;100662.38;;;12.22;55.75
48244;BME280;34053;51.088;6.572;2023-04-28T00:48:06;100657.88;;;12.51;52.49
48244;BME280;34053;51.088;6.572;2023-04-28T00:50:37;100653.88;;;12.65;51.98
48244;BME280;34053;51.088;6.572;2023-04-28T00:53:07;100653.41;;;12.77;50.58
48244;BME280;34053;51.088;6.572;2023-04-28T00:55:39;100661.94;;;12.84;50.32
48244;BME280;34053;51.088;6.572;2023-04-28T00:58:10;100656.81;;;12.81;51.09
48244;BME280;34053;51.088;6.572;2023-04-28T01:00:40;100660.19;;;12.84;50.10
48244;BME280;34053;51.088;6.572;2023-04-28T01:03:10;100654.78;;;12.87;50.66
48244;BME280;34053;51.088;6.572;2023-04-28T01:05:41;100653.88;;;12.88;50.57
48244;BME280;34053;51.088;6.572;2023-04-28T01:08:11;100648.50;;;12.91;50.60
48244;BME280;34053;51.088;6.572;2023-04-28T01:10:43;100650.09;;;12.96;50.49
48244;BME280;34053;51.088;6.572;2023-04-28T01:13:14;100645.56;;;12.99;50.96
48244;BME280;34053;51.088;6.572;2023-04-28T01:15:44;100644.78;;;12.97;51.75
48244;BME280;34053;51.088;6.572;2023-04-28T01:18:15;100642.78;;;12.80;53.38
48244;BME280;34053;51.088;6.572;2023-04-28T01:20:45;100646.38;;;12.78;52.99
48244;BME280;34053;51.088;6.572;2023-04-28T01:23:16;100643.22;;;12.91;51.92
48244;BME280;34053;51.088;6.572;2023-04-28T01:25:47;100650.25;;;12.91;52.55
48244;BME280;34053;51.088;6.572;2023-04-28T01:28:17;100657.41;;;12.87;52.32
48244;BME280;34053;51.088;6.572;2023-04-28T01:30:48;100657.31;;;12.90;53.37
48244;BME280;34053;51.088;6.572;2023-04-28T01:33:18;100651.56;;;13.03;52.32
48244;BME280;34053;51.088;6.572;2023-04-28T01:35:49;100655.06;;;13.03;51.79
48244;BME280;34053;51.088;6.572;2023-04-28T01:38:19;100651.56;;;13.03;52.72
48244;BME280;34053;51.088;6.572;2023-04-28T01:40:49;100643.97;;;12.95;54.54
48244;BME280;34053;51.088;6.572;2023-04-28T01:43:20;100634.59;;;12.64;57.03
48244;BME280;34053;51.088;6.572;2023-04-28T01:45:50;100632.63;;;12.46;56.68
48244;BME280;34053;51.088;6.572;2023-04-28T01:48:21;100631.97;;;12.64;55.89
48244;BME280;34053;51.088;6.572;2023-04-28T01:50:51;100633.47;;;12.71;56.44
48244;BME280;34053;51.088;6.572;2023-04-28T01:56:30;100638.31;;;12.82;54.18
48244;BME280;34053;51.088;6.572;2023-04-28T01:59:00;100634.19;;;12.75;55.55
48244;BME280;34053;51.088;6.572;2023-04-28T02:01:30;100628.47;;;12.64;58.92
48244;BME280;34053;51.088;6.572;2023-04-28T02:04:01;100629.72;;;12.77;54.79
48244;BME280;34053;51.088;6.572;2023-04-28T02:06:31;100632.00;;;12.86;54.15
48244;BME280;34053;51.088;6.572;2023-04-28T02:09:02;100623.44;;;12.81;55.59
48244;BME280;34053;51.088;6.572;2023-04-28T02:11:32;100615.34;;;12.86;54.15
48244;BME280;34053;51.088;6.572;2023-04-28T02:14:02;100617.91;;;12.87;54.11
48244;BME280;34053;51.088;6.572;2023-04-28T02:16:33;100623.88;;;12.93;54.45
48244;BME280;34053;51.088;6.572;2023-04-28T02:19:03;100614.25;;;12.91;54.26
48244;BME280;34053;51.088;6.572;2023-04-28T02:21:34;100606.94;;;12.52;59.06
48244;BME280;34053;51.088;6.572;2023-04-28T02:24:04;100605.00;;;12.34;61.07
48244;BME280;34053;51.088;6.572;2023-04-28T02:26:35;100599.41;;;12.67;56.41
48244;BME280;34053;51.088;6.572;2023-04-28T02:29:06;100604.66;;;12.67;60.01
48244;BME280;34053;51.088;6.572;2023-04-28T02:31:36;100611.88;;;12.62;57.29
48244;BME280;34053;51.088;6.572;2023-04-28T02:34:07;100612.16;;;12.78;55.96
48244;BME280;34053;51.088;6.572;2023-04-28T02:36:38;100618.16;;;12.81;55.59
48244;BME280;34053;51.088;6.572;2023-04-28T02:39:08;100612.78;;;12.84;56.06
48244;BME280;34053;51.088;6.572;2023-04-28T02:41:39;100622.63;;;12.79;55.80
48244;BME280;34053;51.088;6.572;2023-04-28T02:44:09;100621.72;;;12.80;56.00
48244;BME280;34053;51.088;6.572;2023-04-28T02:46:40;100614.38;;;12.88;56.35
48244;BME280;34053;51.088;6.572;2023-04-28T02:49:10;100610.38;;;12.78;57.58
48244;BME280;34053;51.088;6.572;2023-04-28T02:51:41;100597.19;;;12.78;56.74
48244;BME280;34053;51.088;6.572;2023-04-28T02:54:12;100598.81;;;12.82;56.19
48244;BME280;34053;51.088;6.572;2023-04-28T02:56:42;100595.38;;;12.80;57.62
48244;BME280;34053;51.088;6.572;2023-04-28T02:59:13;100600.56;;;12.59;60.95
48244;BME280;34053;51.088;6.572;2023-04-28T03:01:43;100607.72;;;12.78;57.49
48244;BME280;34053;51.088;6.572;2023-04-28T03:04:14;100610.94;;;12.86;58.06
48244;BME280;34053;51.088;6.572;2023-04-28T03:06:44;100598.81;;;12.82;56.85
48244;BME280;34053;51.088;6.572;2023-04-28T03:09:15;100593.66;;;12.79;57.40
48244;BME280;34053;51.088;6.572;2023-04-28T03:11:45;100587.38;;;12.83;56.78
48244;BME280;34053;51.088;6.572;2023-04-28T03:14:16;100590.78;;;12.85;56.71
48244;BME280;34053;51.088;6.572;2023-04-28T03:16:46;100598.66;;;12.87;56.50
48244;BME280;34053;51.088;6.572;2023-04-28T03:19:17;100592.91;;;12.75;59.21
48244;BME280;34053;51.088;6.572;2023-04-28T03:21:47;100581.31;;;12.57;62.96
48244;BME280;34053;51.088;6.572;2023-04-28T03:24:17;100570.97;;;12.53;60.14
48244;BME280;34053;51.088;6.572;2023-04-28T03:26:48;100556.03;;;12.53;61.39
48244;BME280;34053;51.088;6.572;2023-04-28T03:29:18;100560.69;;;12.69;60.42
48244;BME280;34053;51.088;6.572;2023-04-28T03:31:49;100551.16;;;12.66;59.56
48244;BME280;34053;51.088;6.572;2023-04-28T03:34:20;100546.59;;;12.71;59.21
48244;BME280;34053;51.088;6.572;2023-04-28T03:36:50;100536.91;;;12.72;59.83
48244;BME280;34053;51.088;6.572;2023-04-28T03:39:20;100524.22;;;12.59;61.37
48244;BME280;34053;51.088;6.572;2023-04-28T03:41:51;100514.66;;;12.57;61.39
48244;BME280;34053;51.088;6.572;2023-04-28T03:44:21;100506.56;;;12.62;61.40
48244;BME280;34053;51.088;6.572;2023-04-28T03:46:52;100504.09;;;12.58;61.04
48244;BME280;34053;51.088;6.572;2023-04-28T03:49:23;100507.91;;;12.50;62.10
48244;BME280;34053;51.088;6.572;2023-04-28T03:51:53;100506.66;;;12.60;60.69
48244;BME280;34053;51.088;6.572;2023-04-28T03:54:24;100510.03;;;12.64;59.57
48244;BME280;34053;51.088;6.572;2023-04-28T03:56:54;100501.50;;;12.57;60.64
48244;BME280;34053;51.088;6.572;2023-04-28T03:59:24;100495.84;;;12.68;60.61
48244;BME280;34053;51.088;6.572;2023-04-28T04:01:56;100493.00;;;12.50;62.65
48244;BME280;34053;51.088;6.572;2023-04-28T04:04:26;100488.38;;;12.33;64.99
48244;BME280;34053;51.088;6.572;2023-04-28T04:06:56;100489.84;;;12.40;63.63
48244;BME280;34053;51.088;6.572;2023-04-28T04:09:27;100490.84;;;12.14;66.07
48244;BME280;34053;51.088;6.572;2023-04-28T04:11:58;100495.41;;;12.33;63.98
48244;BME280;34053;51.088;6.572;2023-04-28T04:14:30;100491.38;;;12.46;60.86
48244;BME280;34053;51.088;6.572;2023-04-28T04:17:00;100490.47;;;12.47;61.55
48244;BME280;34053;51.088;6.572;2023-04-28T04:19:31;100501.56;;;12.55;60.43
48244;BME280;34053;51.088;6.572;2023-04-28T04:22:01;100509.38;;;12.57;59.67
48244;BME280;34053;51.088;6.572;2023-04-28T04:24:31;100507.75;;;12.54;61.29
48244;BME280;34053;51.088;6.572;2023-04-28T04:27:02;100505.97;;;12.55;60.40
48244;BME280;34053;51.088;6.572;2023-04-28T04:29:32;100506.91;;;12.54;60.85
48244;BME280;34053;51.088;6.572;2023-04-28T04:32:03;100508.78;;;12.50;62.10
48244;BME280;34053;51.088;6.572;2023-04-28T04:34:33;100511.44;;;12.26;65.64
48244;BME280;34053;51.088;6.572;2023-04-28T04:37:04;100508.63;;;12.55;62.18
48244;BME280;34053;51.088;6.572;2023-04-28T04:39:34;100499.84;;;12.54;61.78
48244;BME280;34053;51.088;6.572;2023-04-28T04:42:05;100509.63;;;12.51;61.44
48244;BME280;34053;51.088;6.572;2023-04-28T04:44:36;100501.50;;;12.35;65.18
48244;BME280;34053;51.088;6.572;2023-04-28T04:47:06;100503.94;;;12.16;66.65
48244;BME280;34053;51.088;6.572;2023-04-28T04:49:37;100505.47;;;12.45;62.07
48244;BME280;34053;51.088;6.572;2023-04-28T04:52:08;100509.56;;;12.52;61.21
48244;BME280;34053;51.088;6.572;2023-04-28T04:54:38;100496.28;;;12.55;61.14
48244;BME280;34053;51.088;6.572;2023-04-28T04:57:09;100505.00;;;12.57;60.87
48244;BME280;34053;51.088;6.572;2023-04-28T04:59:39;100504.25;;;12.54;62.06
48244;BME280;34053;51.088;6.572;2023-04-28T05:02:10;100498.00;;;12.56;61.02
48244;BME280;34053;51.088;6.572;2023-04-28T05:04:41;100492.75;;;12.56;61.18
48244;BME280;34053;51.088;6.572;2023-04-28T05:07:11;100501.66;;;12.52;61.66
48244;BME280;34053;51.088;6.572;2023-04-28T05:09:41;100499.53;;;12.40;64.72
48244;BME280;34053;51.088;6.572;2023-04-28T05:12:12;100499.28;;;12.46;62.45
48244;BME280;34053;51.088;6.572;2023-04-28T05:14:42;100496.78;;;12.43;62.72
48244;BME280;34053;51.088;6.572;2023-04-28T05:17:13;100497.97;;;12.34;63.68
48244;BME280;34053;51.088;6.572;2023-04-28T05:19:43;100501.00;;;12.47;61.16
48244;BME280;34053;51.088;6.572;2023-04-28T05:22:14;100501.81;;;12.49;62.01
48244;BME280;34053;51.088;6.572;2023-04-28T05:24:44;100495.66;;;12.49;61.93
48244;BME280;34053;51.088;6.572;2023-04-28T05:27:15;100497.53;;;12.47;61.57
48244;BME280;34053;51.088;6.572;2023-04-28T05:29:45;100496.06;;;12.39;62.82
48244;BME280;34053;51.088;6.572;2023-04-28T05:32:16;100494.81;;;12.48;61.21
48244;BME280;34053;51.088;6.572;2023-04-28T05:34:46;100494.16;;;12.43;62.00
48244;BME280;34053;51.088;6.572;2023-04-28T05:37:16;100494.59;;;12.54;60.79
48244;BME280;34053;51.088;6.572;2023-04-28T05:39:47;100489.31;;;12.54;60.56
48244;BME280;34053;51.088;6.572;2023-04-28T05:42:17;100490.38;;;12.50;62.03
48244;BME280;34053;51.088;6.572;2023-04-28T05:44:48;100483.25;;;12.52;61.22
48244;BME280;34053;51.088;6.572;2023-04-28T05:47:18;100473.66;;;12.51;62.07
48244;BME280;34053;51.088;6.572;2023-04-28T05:49:48;100477.06;;;12.53;61.53
48244;BME280;34053;51.088;6.572;2023-04-28T05:52:19;100470.31;;;12.48;64.45
48244;BME280;34053;51.088;6.572;2023-04-28T05:54:49;100464.97;;;12.49;63.28
48244;BME280;34053;51.088;6.572;2023-04-28T05:57:20;100463.13;;;12.51;63.26
48244;BME280;34053;51.088;6.572;2023-04-28T05:59:51;100467.66;;;12.48;65.44
48244;BME280;34053;51.088;6.572;2023-04-28T06:02:21;100459.44;;;12.55;63.35
48244;BME280;34053;51.088;6.572;2023-04-28T06:04:52;100466.38;;;12.58;64.48
48244;BME280;34053;51.088;6.572;2023-04-28T06:07:22;100468.09;;;12.59;62.50
48244;BME280;34053;51.088;6.572;2023-04-28T06:09:52;100478.06;;;12.51;64.19
48244;BME280;34053;51.088;6.572;2023-04-28T06:12:23;100469.13;;;12.55;63.37
48244;BME280;34053;51.088;6.572;2023-04-28T06:14:53;100474.59;;;12.50;64.42
48244;BME280;34053;51.088;6.572;2023-04-28T06:17:24;100478.78;;;12.54;63.09
48244;BME280;34053;51.088;6.572;2023-04-28T06:19:55;100476.72;;;12.63;61.99
48244;BME280;34053;51.088;6.572;2023-04-28T06:22:28;100472.31;;;12.63;62.37
48244;BME280;34053;51.088;6.572;2023-04-28T06:24:58;100476.72;;;12.63;63.94
48244;BME280;34053;51.088;6.572;2023-04-28T06:27:28;100480.16;;;12.87;63.63
48244;BME280;34053;51.088;6.572;2023-04-28T06:30:02;100483.59;;;12.67;64.94
48244;BME280;34053;51.088;6.572;2023-04-28T06:32:32;100470.22;;;12.49;66.84
48244;BME280;34053;51.088;6.572;2023-04-28T06:35:03;100469.72;;;12.62;66.45
48244;BME280;34053;51.088;6.572;2023-04-28T06:37:34;100463.13;;;12.73;65.58
48244;BME280;34053;51.088;6.572;2023-04-28T06:40:05;100464.84;;;12.74;64.93
48244;BME280;34053;51.088;6.572;2023-04-28T06:42:35;100479.06;;;12.70;65.21
48244;BME280;34053;51.088;6.572;2023-04-28T06:45:06;100477.00;;;12.77;65.86
48244;BME280;34053;51.088;6.572;2023-04-28T06:47:37;100468.00;;;12.83;65.53
48244;BME280;34053;51.088;6.572;2023-04-28T06:50:09;100464.16;;;12.91;63.70
48244;BME280;34053;51.088;6.572;2023-04-28T06:52:40;100470.47;;;12.87;68.04
48244;BME280;34053;51.088;6.572;2023-04-28T06:55:14;100480.63;;;12.97;64.24
48244;BME280;34053;51.088;6.572;2023-04-28T06:57:45;100481.44;;;12.99;66.70
48244;BME280;34053;51.088;6.572;2023-04-28T07:00:15;100479.34;;;13.07;65.39
48244;BME280;34053;51.088;6.572;2023-04-28T07:02:46;100474.97;;;13.06;64.93
48244;BME280;34053;51.088;6.572;2023-04-28T07:05:16;100479.16;;;13.12;64.83
48244;BME280;34053;51.088;6.572;2023-04-28T07:07:47;100480.72;;;13.16;65.37
48244;BME280;34053;51.088;6.572;2023-04-28T07:10:17;100488.56;;;13.17;64.83
48244;BME280;34053;51.088;6.572;2023-04-28T07:12:49;100494.81;;;13.15;67.34
48244;BME280;34053;51.088;6.572;2023-04-28T07:15:21;100488.16;;;13.27;64.22
48244;BME280;34053;51.088;6.572;2023-04-28T07:17:53;100485.47;;;13.28;64.93
48244;BME280;34053;51.088;6.572;2023-04-28T07:20:23;100487.00;;;13.34;63.79
48244;BME280;34053;51.088;6.572;2023-04-28T07:22:53;100480.41;;;13.23;65.32
48244;BME280;34053;51.088;6.572;2023-04-28T07:25:24;100483.56;;;13.32;64.86
48244;BME280;34053;51.088;6.572;2023-04-28T07:27:55;100472.88;;;13.35;64.21
48244;BME280;34053;51.088;6.572;2023-04-28T07:30:25;100465.78;;;13.38;64.45
48244;BME280;34053;51.088;6.572;2023-04-28T07:32:55;100472.59;;;13.43;64.91
48244;BME280;34053;51.088;6.572;2023-04-28T07:35:26;100474.41;;;13.42;65.06
48244;BME280;34053;51.088;6.572;2023-04-28T07:37:56;100488.94;;;13.51;65.50
48244;BME280;34053;51.088;6.572;2023-04-28T07:40:27;100486.56;;;13.45;66.31
48244;BME280;34053;51.088;6.572;2023-04-28T07:42:58;100489.03;;;13.49;66.13
48244;BME280;34053;51.088;6.572;2023-04-28T07:45:28;100479.47;;;13.47;67.23
48244;BME280;34053;51.088;6.572;2023-04-28T07:47:59;100465.03;;;13.56;66.44
48244;BME280;34053;51.088;6.572;2023-04-28T07:50:29;100461.47;;;13.57;65.56
48244;BME280;34053;51.088;6.572;2023-04-28T07:53:00;100457.00;;;13.59;66.40
48244;BME280;34053;51.088;6.572;2023-04-28T07:55:30;100456.72;;;13.65;64.91
48244;BME280;34053;51.088;6.572;2023-04-28T07:58:01;100461.06;;;13.66;65.89
48244;BME280;34053;51.088;6.572;2023-04-28T08:00:31;100459.28;;;13.66;67.96
48244;BME280;34053;51.088;6.572;2023-04-28T08:03:02;100466.78;;;13.76;65.03
48244;BME280;34053;51.088;6.572;2023-04-28T08:05:32;100456.44;;;13.71;68.37
48244;BME280;34053;51.088;6.572;2023-04-28T08:08:03;100463.84;;;13.82;65.90
48244;BME280;34053;51.088;6.572;2023-04-28T08:10:33;100457.47;;;13.88;66.88
48244;BME280;34053;51.088;6.572;2023-04-28T08:13:03;100459.47;;;13.82;70.59
48244;BME280;34053;51.088;6.572;2023-04-28T08:15:34;100456.63;;;13.87;68.24
48244;BME280;34053;51.088;6.572;2023-04-28T08:18:04;100458.91;;;13.95;67.75
48244;BME280;34053;51.088;6.572;2023-04-28T08:20:36;100462.84;;;14.05;67.76
48244;BME280;34053;51.088;6.572;2023-04-28T08:23:07;100465.34;;;14.08;69.34
48244;BME280;34053;51.088;6.572;2023-04-28T08:25:38;100460.78;;;14.12;69.32
48244;BME280;34053;51.088;6.572;2023-04-28T08:28:09;100469.25;;;14.19;67.39
48244;BME280;34053;51.088;6.572;2023-04-28T08:30:39;100471.63;;;14.25;66.64
48244;BME280;34053;51.088;6.572;2023-04-28T08:33:09;100469.47;;;14.33;67.62
48244;BME280;34053;51.088;6.572;2023-04-28T08:35:54;100470.41;;;14.32;67.76
48244;BME280;34053;51.088;6.572;2023-04-28T08:38:25;100470.31;;;14.33;69.32
48244;BME280;34053;51.088;6.572;2023-04-28T08:40:56;100471.16;;;14.34;69.60
48244;BME280;34053;51.088;6.572;2023-04-28T08:43:26;100472.63;;;14.41;68.43
48244;BME280;34053;51.088;6.572;2023-04-28T08:45:58;100482.78;;;14.49;67.57
48244;BME280;34053;51.088;6.572;2023-04-28T08:48:31;100479.16;;;14.52;68.50
48244;BME280;34053;51.088;6.572;2023-04-28T08:51:05;100486.44;;;14.46;70.88
48244;BME280;34053;51.088;6.572;2023-04-28T08:53:37;100480.88;;;14.53;70.27
48244;BME280;34053;51.088;6.572;2023-04-28T08:56:09;100483.06;;;14.62;68.94
48244;BME280;34053;51.088;6.572;2023-04-28T08:58:42;100477.00;;;14.60;70.72
48244;BME280;34053;51.088;6.572;2023-04-28T09:01:13;100484.59;;;14.68;70.17
48244;BME280;34053;51.088;6.572;2023-04-28T09:03:43;100472.72;;;14.76;68.73
48244;BME280;34053;51.088;6.572;2023-04-28T09:06:14;100479.50;;;14.82;68.32
48244;BME280;34053;51.088;6.572;2023-04-28T09:08:44;100480.50;;;14.79;69.72
48244;BME280;34053;51.088;6.572;2023-04-28T09:11:15;100477.41;;;14.89;68.10
48244;BME280;34053;51.088;6.572;2023-04-28T09:13:45;100483.00;;;14.83;69.97
48244;BME280;34053;51.088;6.572;2023-04-28T09:16:16;100478.97;;;14.93;69.35
48244;BME280;34053;51.088;6.572;2023-04-28T09:18:56;100470.09;;;14.94;68.04
48244;BME280;34053;51.088;6.572;2023-04-28T09:21:27;100464.50;;;15.00;67.83
48244;BME280;34053;51.088;6.572;2023-04-28T09:23:57;100466.47;;;14.97;69.15
48244;BME280;34053;51.088;6.572;2023-04-28T09:26:47;100478.38;;;15.05;67.51
48244;BME280;34053;51.088;6.572;2023-04-28T09:29:17;100471.06;;;15.10;67.20
48244;BME280;34053;51.088;6.572;2023-04-28T09:31:48;100475.97;;;15.01;70.16
48244;BME280;34053;51.088;6.572;2023-04-28T09:34:19;100468.59;;;15.07;70.91
48244;BME280;34053;51.088;6.572;2023-04-28T09:36:50;100465.16;;;15.05;70.29
48244;BME280;34053;51.088;6.572;2023-04-28T09:39:29;100470.84;;;15.15;68.94
48244;BME280;34053;51.088;6.572;2023-04-28T09:41:59;100467.50;;;15.11;69.00
48244;BME280;34053;51.088;6.572;2023-04-28T09:44:32;100468.50;;;15.09;71.88
48244;BME280;34053;51.088;6.572;2023-04-28T09:47:19;100468.50;;;15.09;71.65
48244;BME280;34053;51.088;6.572;2023-04-28T09:49:59;100467.50;;;15.11;73.22
48244;BME280;34053;51.088;6.572;2023-04-28T09:52:32;100469.34;;;15.09;73.19
48244;BME280;34053;51.088;6.572;2023-04-28T09:55:04;100474.84;;;15.05;76.63
48244;BME280;34053;51.088;6.572;2023-04-28T09:57:36;100466.41;;;14.98;76.67
48244;BME280;34053;51.088;6.572;2023-04-28T10:00:07;100456.59;;;15.00;78.27
48244;BME280;34053;51.088;6.572;2023-04-28T10:02:38;100461.19;;;15.14;75.12
48244;BME280;34053;51.088;6.572;2023-04-28T10:05:08;100457.38;;;15.20;73.37
48244;BME280;34053;51.088;6.572;2023-04-28T10:07:39;100457.06;;;15.08;77.77
48244;BME280;34053;51.088;6.572;2023-04-28T10:10:10;100461.59;;;15.06;76.45
48244;BME280;34053;51.088;6.572;2023-04-28T10:12:44;100460.81;;;15.04;80.47
48244;BME280;34053;51.088;6.572;2023-04-28T10:15:15;100465.84;;;14.91;81.35
48244;BME280;34053;51.088;6.572;2023-04-28T10:17:47;100461.88;;;14.83;84.15
48244;BME280;34053;51.088;6.572;2023-04-28T10:20:20;100464.78;;;14.76;84.39
48244;BME280;34053;51.088;6.572;2023-04-28T10:25:36;100460.00;;;14.85;83.41
48244;BME280;34053;51.088;6.572;2023-04-28T10:28:08;100453.94;;;15.00;82.47
48244;BME280;34053;51.088;6.572;2023-04-28T10:30:39;100462.34;;;14.91;84.75
48244;BME280;34053;51.088;6.572;2023-04-28T10:35:44;100456.22;;;15.08;81.90
48244;BME280;34053;51.088;6.572;2023-04-28T10:38:15;100457.00;;;15.10;83.77
48244;BME280;34053;51.088;6.572;2023-04-28T10:40:51;100457.53;;;15.17;83.30
48244;BME280;34053;51.088;6.572;2023-04-28T10:46:06;100456.69;;;15.34;83.29
48244;BME280;34053;51.088;6.572;2023-04-28T10:56:22;100441.78;;;15.66;83.83
48244;BME280;34053;51.088;6.572;2023-04-28T10:58:57;100445.06;;;15.71;83.32
48244;BME280;34053;51.088;6.572;2023-04-28T11:01:31;100444.28;;;15.52;84.65
48244;BME280;34053;51.088;6.572;2023-04-28T11:04:08;100441.09;;;15.63;84.16
48244;BME280;34053;51.088;6.572;2023-04-28T11:06:47;100444.81;;;15.76;82.47
48244;BME280;34053;51.088;6.572;2023-04-28T11:12:07;100441.03;;;15.80;81.77
48244;BME280;34053;51.088;6.572;2023-04-28T11:14:40;100438.03;;;15.88;81.80
48244;BME280;34053;51.088;6.572;2023-04-28T11:17:10;100434.22;;;15.94;82.98
48244;BME280;34053;51.088;6.572;2023-04-28T11:19:44;100431.75;;;16.07;81.07
48244;BME280;34053;51.088;6.572;2023-04-28T11:24:55;100413.91;;;16.26;81.16
48244;BME280;34053;51.088;6.572;2023-04-28T11:27:29;100413.47;;;16.34;81.66
48244;BME280;34053;51.088;6.572;2023-04-28T11:30:00;100416.28;;;16.47;83.33
48244;BME280;34053;51.088;6.572;2023-04-28T11:32:35;100411.16;;;16.60;81.45
48244;BME280;34053;51.088;6.572;2023-04-28T11:35:05;100420.94;;;16.74;81.40
48244;BME280;34053;51.088;6.572;2023-04-28T11:37:38;100419.72;;;16.79;80.20
48244;BME280;34053;51.088;6.572;2023-04-28T11:40:12;100423.91;;;16.83;78.45
48244;BME280;34053;51.088;6.572;2023-04-28T11:42:49;100420.41;;;16.83;78.75
48244;BME280;34053;51.088;6.572;2023-04-28T11:45:20;100423.44;;;16.91;76.98
48244;BME280;34053;51.088;6.572;2023-04-28T11:47:50;100421.75;;;16.90;77.77
48244;BME280;34053;51.088;6.572;2023-04-28T11:50:39;100418.78;;;16.96;77.26
48244;BME280;34053;51.088;6.572;2023-04-28T11:53:09;100409.53;;;17.04;77.02
48244;BME280;34053;51.088;6.572;2023-04-28T11:55:40;100417.88;;;17.12;76.30
48244;BME280;34053;51.088;6.572;2023-04-28T11:58:20;100419.03;;;17.22;76.18
48244;BME280;34053;51.088;6.572;2023-04-28T12:01:08;100414.25;;;17.43;77.00
48244;BME280;34053;51.088;6.572;2023-04-28T12:06:17;100415.41;;;17.68;76.07
48244;BME280;34053;51.088;6.572;2023-04-28T12:08:48;100421.16;;;17.75;74.99
48244;BME280;34053;51.088;6.572;2023-04-28T12:11:19;100413.94;;;17.77;75.49
48244;BME280;34053;51.088;6.572;2023-04-28T12:14:04;100404.47;;;17.87;74.45
48244;BME280;34053;51.088;6.572;2023-04-28T12:16:39;100398.63;;;17.97;73.42
48244;BME280;34053;51.088;6.572;2023-04-28T12:19:13;100405.38;;;18.15;71.53
48244;BME280;34053;51.088;6.572;2023-04-28T12:22:02;100404.41;;;18.31;72.81
48244;BME280;34053;51.088;6.572;2023-04-28T12:24:32;100404.22;;;18.34;71.89
48244;BME280;34053;51.088;6.572;2023-04-28T12:27:18;100405.38;;;18.30;72.42
48244;BME280;34053;51.088;6.572;2023-04-28T12:29:51;100397.31;;;18.31;71.21
48244;BME280;34053;51.088;6.572;2023-04-28T12:32:40;100406.09;;;18.46;71.18
48244;BME280;34053;51.088;6.572;2023-04-28T12:35:12;100405.72;;;18.65;70.37
48244;BME280;34053;51.088;6.572;2023-04-28T12:37:43;100397.66;;;18.67;69.85
48244;BME280;34053;51.088;6.572;2023-04-28T12:40:13;100391.25;;;18.69;68.92
48244;BME280;34053;51.088;6.572;2023-04-28T12:42:44;100399.75;;;18.62;70.23
48244;BME280;34053;51.088;6.572;2023-04-28T12:45:14;100405.63;;;18.67;70.94
48244;BME280;34053;51.088;6.572;2023-04-28T12:47:45;100394.91;;;18.81;69.94
48244;BME280;34053;51.088;6.572;2023-04-28T12:50:17;100383.00;;;18.87;68.37
48244;BME280;34053;51.088;6.572;2023-04-28T12:52:47;100393.06;;;18.96;68.79
48244;BME280;34053;51.088;6.572;2023-04-28T12:55:18;100387.34;;;19.15;68.58
48244;BME280;34053;51.088;6.572;2023-04-28T12:57:48;100375.75;;;19.16;68.54
48244;BME280;34053;51.088;6.572;2023-04-28T13:00:19;100370.13;;;19.34;67.67
48244;BME280;34053;51.088;6.572;2023-04-28T13:02:52;100376.06;;;19.38;66.93
48244;BME280;34053;51.088;6.572;2023-04-28T13:05:23;100372.47;;;19.39;66.72
48244;BME280;34053;51.088;6.572;2023-04-28T13:07:53;100371.06;;;19.20;65.89
48244;BME280;34053;51.088;6.572;2023-04-28T13:10:24;100372.66;;;19.23;66.14
48244;BME280;34053;51.088;6.572;2023-04-28T13:12:55;100373.84;;;19.31;66.54
48244;BME280;34053;51.088;6.572;2023-04-28T13:15:26;100378.28;;;19.44;66.74
48244;BME280;34053;51.088;6.572;2023-04-28T13:17:56;100363.81;;;19.61;65.95
48244;BME280;34053;51.088;6.572;2023-04-28T13:20:30;100361.97;;;19.74;65.79
48244;BME280;34053;51.088;6.572;2023-04-28T13:23:00;100351.91;;;20.04;64.45
48244;BME280;34053;51.088;6.572;2023-04-28T13:25:30;100353.41;;;20.32;62.36
48244;BME280;34053;51.088;6.572;2023-04-28T13:28:01;100344.56;;;20.32;63.42
48244;BME280;34053;51.088;6.572;2023-04-28T13:30:31;100347.13;;;20.33;62.29
48244;BME280;34053;51.088;6.572;2023-04-28T13:33:03;100352.31;;;20.59;60.94
48244;BME280;34053;51.088;6.572;2023-04-28T13:35:33;100344.88;;;20.51;61.05
48244;BME280;34053;51.088;6.572;2023-04-28T13:38:04;100347.19;;;20.56;59.86